sensor_id;sensor_type;location;lat;lon;timestamp;temperature;humidity
2130;DHT22;1071;52.544;13.374;2022-11-04T00:01:54;12.30;99.90
2130;DHT22;1071;52.544;13.374;2022-11-04T00:04:23;12.30;99.90
2130;DHT22;1071;52.544;13.374;2022-11-04T00:06:52;12.30;99.90
2130;DHT22;1071;52.544;13.374;2022-11-04T00:09:21;12.20;99.90
2130;DHT22;1071;52.544;13.374;2022-11-04T00:11:49;12.20;99.90
2130;DHT22;1071;52.544;13.374;2022-11-04T00:14:33;12.20;99.90
2130;DHT22;1071;52.544;13.374;2022-11-04T00:17:01;12.20;99.90
2130;DHT22;1071;52.544;13.374;2022-11-04T00:19:48;12.20;99.90
2130;DHT22;1071;52.544;13.374;2022-11-04T00:22:39;12.20;99.90
2130;DHT22;1071;52.544;13.374;2022-11-04T00:25:24;12.20;99.90
2130;DHT22;1071;52.544;13.374;2022-11-04T00:28:10;12.20;99.90
2130;DHT22;1071;52.544;13.374;2022-11-04T00:30:56;12.20;99.90
2130;DHT22;1071;52.544;13.374;2022-11-04T00:33:43;12.20;99.90
2130;DHT22;1071;52.544;13.374;2022-11-04T00:36:09;12.20;99.90
2130;DHT22;1071;52.544;13.374;2022-11-04T00:38:46;12.30;99.90
2130;DHT22;1071;52.544;13.374;2022-11-04T00:41:13;12.30;99.90
2130;DHT22;1071;52.544;13.374;2022-11-04T00:43:53;12.30;99.90
2130;DHT22;1071;52.544;13.374;2022-11-04T00:46:21;12.30;99.90
2130;DHT22;1071;52.544;13.374;2022-11-04T00:48:48;12.30;99.90
2130;DHT22;1071;52.544;13.374;2022-11-04T00:51:19;12.20;99.90
2130;DHT22;1071;52.544;13.374;2022-11-04T00:53:48;12.20;99.90
2130;DHT22;1071;52.544;13.374;2022-11-04T00:56:15;12.20;99.90
2130;DHT22;1071;52.544;13.374;2022-11-04T00:58:42;12.10;99.90
2130;DHT22;1071;52.544;13.374;2022-11-04T01:01:13;12.10;99.90
2130;DHT22;1071;52.544;13.374;2022-11-04T01:03:44;12.20;99.90
2130;DHT22;1071;52.544;13.374;2022-11-04T01:06:11;12.10;99.90
2130;DHT22;1071;52.544;13.374;2022-11-04T01:08:38;12.10;99.90
2130;DHT22;1071;52.544;13.374;2022-11-04T01:11:08;12.10;99.90
2130;DHT22;1071;52.544;13.374;2022-11-04T01:13:36;12.00;99.90
2130;DHT22;1071;52.544;13.374;2022-11-04T01:16:06;12.00;99.90
2130;DHT22;1071;52.544;13.374;2022-11-04T01:18:34;12.00;99.90
2130;DHT22;1071;52.544;13.374;2022-11-04T01:21:02;12.00;99.90
2130;DHT22;1071;52.544;13.374;2022-11-04T01:23:33;11.90;99.90
2130;DHT22;1071;52.544;13.374;2022-11-04T01:26:00;11.90;99.90
2130;DHT22;1071;52.544;13.374;2022-11-04T01:28:28;11.80;99.90
2130;DHT22;1071;52.544;13.374;2022-11-04T01:30:55;11.80;99.90
2130;DHT22;1071;52.544;13.374;2022-11-04T01:33:22;11.70;99.90
2130;DHT22;1071;52.544;13.374;2022-11-04T01:35:50;11.70;99.90
2130;DHT22;1071;52.544;13.374;2022-11-04T01:38:19;11.70;99.90
2130;DHT22;1071;52.544;13.374;2022-11-04T01:40:47;11.60;99.90
2130;DHT22;1071;52.544;13.374;2022-11-04T01:43:15;11.60;99.90
2130;DHT22;1071;52.544;13.374;2022-11-04T01:45:46;11.60;99.90
2130;DHT22;1071;52.544;13.374;2022-11-04T01:48:18;11.70;99.90
2130;DHT22;1071;52.544;13.374;2022-11-04T01:50:47;11.70;99.90
2130;DHT22;1071;52.544;13.374;2022-11-04T01:53:19;11.70;99.90
2130;DHT22;1071;52.544;13.374;2022-11-04T01:55:51;11.80;99.90
2130;DHT22;1071;52.544;13.374;2022-11-04T01:58:23;11.80;99.90
2130;DHT22;1071;52.544;13.374;2022-11-04T02:00:53;11.80;99.90
2130;DHT22;1071;52.544;13.374;2022-11-04T02:03:24;11.80;99.90
2130;DHT22;1071;52.544;13.374;2022-11-04T02:05:53;11.80;99.90
2130;DHT22;1071;52.544;13.374;2022-11-04T02:08:20;11.90;99.90
2130;DHT22;1071;52.544;13.374;2022-11-04T02:10:51;11.90;99.90
2130;DHT22;1071;52.544;13.374;2022-11-04T02:13:20;11.80;99.90
2130;DHT22;1071;52.544;13.374;2022-11-04T02:15:54;11.80;99.90
2130;DHT22;1071;52.544;13.374;2022-11-04T02:18:35;11.80;99.90
2130;DHT22;1071;52.544;13.374;2022-11-04T02:27:27;11.70;99.90
2130;DHT22;1071;52.544;13.374;2022-11-04T02:30:09;11.70;99.90
2130;DHT22;1071;52.544;13.374;2022-11-04T02:33:07;11.70;99.90
2130;DHT22;1071;52.544;13.374;2022-11-04T02:35:42;11.70;99.90
2130;DHT22;1071;52.544;13.374;2022-11-04T02:38:17;11.80;99.90
2130;DHT22;1071;52.544;13.374;2022-11-04T02:40:58;11.80;99.90
2130;DHT22;1071;52.544;13.374;2022-11-04T02:43:32;11.80;99.90
2130;DHT22;1071;52.544;13.374;2022-11-04T02:46:05;11.80;99.90
2130;DHT22;1071;52.544;13.374;2022-11-04T02:48:37;11.90;99.90
2130;DHT22;1071;52.544;13.374;2022-11-04T02:51:11;11.90;99.90
2130;DHT22;1071;52.544;13.374;2022-11-04T02:53:42;11.80;99.90
2130;DHT22;1071;52.544;13.374;2022-11-04T02:56:10;11.90;99.90
2130;DHT22;1071;52.544;13.374;2022-11-04T02:58:43;11.80;99.90
2130;DHT22;1071;52.544;13.374;2022-11-04T03:01:17;11.80;99.90
2130;DHT22;1071;52.544;13.374;2022-11-04T03:03:47;11.80;99.90
2130;DHT22;1071;52.544;13.374;2022-11-04T03:06:18;11.70;99.90
2130;DHT22;1071;52.544;13.374;2022-11-04T03:08:48;11.70;99.90
2130;DHT22;1071;52.544;13.374;2022-11-04T03:11:19;11.70;99.90
2130;DHT22;1071;52.544;13.374;2022-11-04T03:13:49;11.70;99.90
2130;DHT22;1071;52.544;13.374;2022-11-04T03:16:25;11.70;99.90
2130;DHT22;1071;52.544;13.374;2022-11-04T03:18:59;11.70;99.90
2130;DHT22;1071;52.544;13.374;2022-11-04T03:21:31;11.70;99.90
2130;DHT22;1071;52.544;13.374;2022-11-04T03:24:05;11.80;99.90
2130;DHT22;1071;52.544;13.374;2022-11-04T03:26:38;11.70;99.90
2130;DHT22;1071;52.544;13.374;2022-11-04T03:29:18;11.80;99.90
2130;DHT22;1071;52.544;13.374;2022-11-04T03:31:52;11.80;99.90
2130;DHT22;1071;52.544;13.374;2022-11-04T03:35:25;11.70;99.90
2130;DHT22;1071;52.544;13.374;2022-11-04T03:38:53;11.70;99.90
2130;DHT22;1071;52.544;13.374;2022-11-04T03:41:09;11.70;99.90
2130;DHT22;1071;52.544;13.374;2022-11-04T03:43:39;11.70;99.90
2130;DHT22;1071;52.544;13.374;2022-11-04T03:46:07;11.70;99.90
2130;DHT22;1071;52.544;13.374;2022-11-04T03:48:36;11.70;99.90
2130;DHT22;1071;52.544;13.374;2022-11-04T03:51:03;11.80;99.90
2130;DHT22;1071;52.544;13.374;2022-11-04T03:53:31;11.80;99.90
2130;DHT22;1071;52.544;13.374;2022-11-04T03:56:14;11.80;99.90
2130;DHT22;1071;52.544;13.374;2022-11-04T03:58:49;11.80;99.90
2130;DHT22;1071;52.544;13.374;2022-11-04T04:01:26;11.80;99.90
2130;DHT22;1071;52.544;13.374;2022-11-04T04:04:00;11.80;99.90
2130;DHT22;1071;52.544;13.374;2022-11-04T04:06:32;11.80;99.90
2130;DHT22;1071;52.544;13.374;2022-11-04T04:09:08;11.80;99.90
2130;DHT22;1071;52.544;13.374;2022-11-04T04:11:41;11.90;99.90
2130;DHT22;1071;52.544;13.374;2022-11-04T04:14:15;11.90;99.90
2130;DHT22;1071;52.544;13.374;2022-11-04T04:17:04;11.90;99.90
2130;DHT22;1071;52.544;13.374;2022-11-04T04:19:35;11.90;99.90
2130;DHT22;1071;52.544;13.374;2022-11-04T04:22:06;11.90;99.90
2130;DHT22;1071;52.544;13.374;2022-11-04T04:24:36;12.00;99.90
2130;DHT22;1071;52.544;13.374;2022-11-04T04:27:23;12.00;99.90
2130;DHT22;1071;52.544;13.374;2022-11-04T04:30:02;12.00;99.90
2130;DHT22;1071;52.544;13.374;2022-11-04T04:32:33;12.00;99.90
2130;DHT22;1071;52.544;13.374;2022-11-04T04:35:02;12.00;99.90
2130;DHT22;1071;52.544;13.374;2022-11-04T04:37:47;12.00;99.90
2130;DHT22;1071;52.544;13.374;2022-11-04T04:40:16;12.00;99.90
2130;DHT22;1071;52.544;13.374;2022-11-04T04:43:02;12.10;99.90
2130;DHT22;1071;52.544;13.374;2022-11-04T04:45:49;12.10;99.90
2130;DHT22;1071;52.544;13.374;2022-11-04T04:48:17;12.10;99.90
2130;DHT22;1071;52.544;13.374;2022-11-04T04:50:48;12.10;99.90
2130;DHT22;1071;52.544;13.374;2022-11-04T04:53:17;12.10;99.90
2130;DHT22;1071;52.544;13.374;2022-11-04T04:55:44;12.10;99.90
2130;DHT22;1071;52.544;13.374;2022-11-04T04:58:13;12.20;99.90
2130;DHT22;1071;52.544;13.374;2022-11-04T05:00:40;12.20;99.90
2130;DHT22;1071;52.544;13.374;2022-11-04T05:03:07;12.20;99.90
2130;DHT22;1071;52.544;13.374;2022-11-04T05:05:34;12.20;99.90
2130;DHT22;1071;52.544;13.374;2022-11-04T05:08:06;12.20;99.90
2130;DHT22;1071;52.544;13.374;2022-11-04T05:10:33;12.20;99.90
2130;DHT22;1071;52.544;13.374;2022-11-04T05:13:01;12.30;99.90
2130;DHT22;1071;52.544;13.374;2022-11-04T05:15:54;12.30;99.90
2130;DHT22;1071;52.544;13.374;2022-11-04T05:18:22;12.30;99.90
2130;DHT22;1071;52.544;13.374;2022-11-04T05:20:49;12.30;99.90
2130;DHT22;1071;52.544;13.374;2022-11-04T05:23:17;12.30;99.90
2130;DHT22;1071;52.544;13.374;2022-11-04T05:25:44;12.30;99.90
2130;DHT22;1071;52.544;13.374;2022-11-04T05:28:11;12.40;99.90
2130;DHT22;1071;52.544;13.374;2022-11-04T05:30:38;12.40;99.90
2130;DHT22;1071;52.544;13.374;2022-11-04T05:33:05;12.40;99.90
2130;DHT22;1071;52.544;13.374;2022-11-04T05:35:33;12.40;99.90
2130;DHT22;1071;52.544;13.374;2022-11-04T05:38:00;12.50;99.90
2130;DHT22;1071;52.544;13.374;2022-11-04T05:40:29;12.50;99.90
2130;DHT22;1071;52.544;13.374;2022-11-04T05:42:57;12.50;99.90
2130;DHT22;1071;52.544;13.374;2022-11-04T05:45:24;12.50;99.90
2130;DHT22;1071;52.544;13.374;2022-11-04T05:47:57;12.50;99.90
2130;DHT22;1071;52.544;13.374;2022-11-04T05:50:24;12.50;99.90
2130;DHT22;1071;52.544;13.374;2022-11-04T05:52:51;12.60;99.90
2130;DHT22;1071;52.544;13.374;2022-11-04T05:55:18;12.60;99.90
2130;DHT22;1071;52.544;13.374;2022-11-04T05:57:46;12.60;99.90
2130;DHT22;1071;52.544;13.374;2022-11-04T06:00:14;12.60;99.90
2130;DHT22;1071;52.544;13.374;2022-11-04T06:02:41;12.60;99.90
2130;DHT22;1071;52.544;13.374;2022-11-04T06:05:08;12.60;99.90
2130;DHT22;1071;52.544;13.374;2022-11-04T06:07:36;12.60;99.90
2130;DHT22;1071;52.544;13.374;2022-11-04T06:10:03;12.60;99.90
2130;DHT22;1071;52.544;13.374;2022-11-04T06:12:32;12.60;99.90
2130;DHT22;1071;52.544;13.374;2022-11-04T06:15:00;12.60;99.90
2130;DHT22;1071;52.544;13.374;2022-11-04T06:17:28;12.60;99.90
2130;DHT22;1071;52.544;13.374;2022-11-04T06:19:55;12.60;99.90
2130;DHT22;1071;52.544;13.374;2022-11-04T06:22:30;12.70;99.90
2130;DHT22;1071;52.544;13.374;2022-11-04T06:24:57;12.70;99.90
2130;DHT22;1071;52.544;13.374;2022-11-04T06:27:24;12.70;99.90
2130;DHT22;1071;52.544;13.374;2022-11-04T06:29:51;12.70;99.90
2130;DHT22;1071;52.544;13.374;2022-11-04T06:32:19;12.70;99.90
2130;DHT22;1071;52.544;13.374;2022-11-04T06:34:46;12.70;99.90
2130;DHT22;1071;52.544;13.374;2022-11-04T06:37:13;12.70;99.90
2130;DHT22;1071;52.544;13.374;2022-11-04T06:39:40;12.70;99.90
2130;DHT22;1071;52.544;13.374;2022-11-04T06:42:07;12.70;99.90
2130;DHT22;1071;52.544;13.374;2022-11-04T06:44:34;12.70;99.90
2130;DHT22;1071;52.544;13.374;2022-11-04T06:47:01;12.80;99.90
2130;DHT22;1071;52.544;13.374;2022-11-04T06:49:29;12.80;99.90
2130;DHT22;1071;52.544;13.374;2022-11-04T06:51:56;12.70;99.90
2130;DHT22;1071;52.544;13.374;2022-11-04T06:54:23;12.70;99.90
2130;DHT22;1071;52.544;13.374;2022-11-04T06:56:50;12.70;99.90
2130;DHT22;1071;52.544;13.374;2022-11-04T06:59:18;12.70;99.90
2130;DHT22;1071;52.544;13.374;2022-11-04T07:01:47;12.70;99.90
2130;DHT22;1071;52.544;13.374;2022-11-04T07:04:15;12.70;99.90
2130;DHT22;1071;52.544;13.374;2022-11-04T07:06:43;12.80;99.90
2130;DHT22;1071;52.544;13.374;2022-11-04T07:09:10;12.80;99.90
2130;DHT22;1071;52.544;13.374;2022-11-04T07:11:47;12.80;99.90
2130;DHT22;1071;52.544;13.374;2022-11-04T07:14:15;12.80;99.90
2130;DHT22;1071;52.544;13.374;2022-11-04T07:16:42;12.80;99.90
2130;DHT22;1071;52.544;13.374;2022-11-04T07:19:09;12.80;99.90
2130;DHT22;1071;52.544;13.374;2022-11-04T07:21:37;12.80;99.90
2130;DHT22;1071;52.544;13.374;2022-11-04T07:24:06;12.80;99.90
2130;DHT22;1071;52.544;13.374;2022-11-04T07:26:33;12.80;99.90
2130;DHT22;1071;52.544;13.374;2022-11-04T07:29:00;12.90;99.90
2130;DHT22;1071;52.544;13.374;2022-11-04T07:31:27;12.90;99.90
2130;DHT22;1071;52.544;13.374;2022-11-04T07:33:54;12.90;99.90
2130;DHT22;1071;52.544;13.374;2022-11-04T07:36:21;12.90;99.90
2130;DHT22;1071;52.544;13.374;2022-11-04T07:38:48;12.90;99.90
2130;DHT22;1071;52.544;13.374;2022-11-04T07:41:19;13.00;99.90
2130;DHT22;1071;52.544;13.374;2022-11-04T07:43:52;13.00;99.90
2130;DHT22;1071;52.544;13.374;2022-11-04T07:46:22;13.00;99.90
2130;DHT22;1071;52.544;13.374;2022-11-04T07:48:49;13.00;99.90
2130;DHT22;1071;52.544;13.374;2022-11-04T07:51:19;13.00;99.90
2130;DHT22;1071;52.544;13.374;2022-11-04T07:53:46;13.00;99.90
2130;DHT22;1071;52.544;13.374;2022-11-04T07:56:13;13.00;99.90
2130;DHT22;1071;52.544;13.374;2022-11-04T07:58:42;13.00;99.90
2130;DHT22;1071;52.544;13.374;2022-11-04T08:01:11;13.10;99.90
2130;DHT22;1071;52.544;13.374;2022-11-04T08:03:42;13.10;99.90
2130;DHT22;1071;52.544;13.374;2022-11-04T08:06:11;13.10;99.90
2130;DHT22;1071;52.544;13.374;2022-11-04T08:08:39;13.20;99.90
2130;DHT22;1071;52.544;13.374;2022-11-04T08:13:57;13.30;99.90
2130;DHT22;1071;52.544;13.374;2022-11-04T08:16:24;13.30;99.90
2130;DHT22;1071;52.544;13.374;2022-11-04T08:18:51;13.30;99.90
2130;DHT22;1071;52.544;13.374;2022-11-04T08:21:21;13.40;99.90
2130;DHT22;1071;52.544;13.374;2022-11-04T08:23:49;13.40;99.90
2130;DHT22;1071;52.544;13.374;2022-11-04T08:26:18;13.40;99.90
2130;DHT22;1071;52.544;13.374;2022-11-04T08:28:48;13.40;99.90
2130;DHT22;1071;52.544;13.374;2022-11-04T08:31:21;13.50;99.90
2130;DHT22;1071;52.544;13.374;2022-11-04T08:33:50;13.50;99.90
2130;DHT22;1071;52.544;13.374;2022-11-04T08:36:19;13.50;99.90
2130;DHT22;1071;52.544;13.374;2022-11-04T08:38:51;13.50;99.90
2130;DHT22;1071;52.544;13.374;2022-11-04T08:41:21;13.50;99.90
2130;DHT22;1071;52.544;13.374;2022-11-04T08:43:49;13.50;99.90
2130;DHT22;1071;52.544;13.374;2022-11-04T08:46:18;13.60;99.90
2130;DHT22;1071;52.544;13.374;2022-11-04T08:48:45;13.60;99.90
2130;DHT22;1071;52.544;13.374;2022-11-04T08:51:16;13.60;99.90
2130;DHT22;1071;52.544;13.374;2022-11-04T08:53:44;13.60;99.90
2130;DHT22;1071;52.544;13.374;2022-11-04T08:56:42;13.60;99.90
2130;DHT22;1071;52.544;13.374;2022-11-04T08:59:11;13.70;99.90
2130;DHT22;1071;52.544;13.374;2022-11-04T09:01:41;13.70;99.90
2130;DHT22;1071;52.544;13.374;2022-11-04T09:04:10;13.70;99.90
2130;DHT22;1071;52.544;13.374;2022-11-04T09:06:40;13.70;99.90
2130;DHT22;1071;52.544;13.374;2022-11-04T09:09:12;13.70;99.90
2130;DHT22;1071;52.544;13.374;2022-11-04T09:11:46;13.80;99.90
2130;DHT22;1071;52.544;13.374;2022-11-04T09:14:13;13.80;99.90
2130;DHT22;1071;52.544;13.374;2022-11-04T09:16:43;13.80;99.90
2130;DHT22;1071;52.544;13.374;2022-11-04T09:19:10;13.80;99.90
2130;DHT22;1071;52.544;13.374;2022-11-04T09:21:37;13.80;99.90
2130;DHT22;1071;52.544;13.374;2022-11-04T09:24:08;13.80;99.90
2130;DHT22;1071;52.544;13.374;2022-11-04T09:26:36;13.90;99.90
2130;DHT22;1071;52.544;13.374;2022-11-04T09:29:04;13.90;99.90
2130;DHT22;1071;52.544;13.374;2022-11-04T09:31:34;13.90;99.90
2130;DHT22;1071;52.544;13.374;2022-11-04T09:34:02;13.90;99.90
2130;DHT22;1071;52.544;13.374;2022-11-04T09:36:29;13.90;99.90
2130;DHT22;1071;52.544;13.374;2022-11-04T09:38:56;13.90;99.90
2130;DHT22;1071;52.544;13.374;2022-11-04T09:41:50;13.90;99.90
2130;DHT22;1071;52.544;13.374;2022-11-04T09:44:24;13.90;99.90
2130;DHT22;1071;52.544;13.374;2022-11-04T09:46:56;13.90;99.90
2130;DHT22;1071;52.544;13.374;2022-11-04T09:49:26;13.90;99.90
2130;DHT22;1071;52.544;13.374;2022-11-04T09:51:55;13.90;99.90
2130;DHT22;1071;52.544;13.374;2022-11-04T09:54:24;13.90;99.90
2130;DHT22;1071;52.544;13.374;2022-11-04T09:56:54;14.00;99.90
2130;DHT22;1071;52.544;13.374;2022-11-04T09:59:26;14.00;99.90
2130;DHT22;1071;52.544;13.374;2022-11-04T10:02:04;14.00;99.90
2130;DHT22;1071;52.544;13.374;2022-11-04T10:04:50;14.00;99.90
2130;DHT22;1071;52.544;13.374;2022-11-04T10:07:28;14.00;99.90
2130;DHT22;1071;52.544;13.374;2022-11-04T10:10:05;14.00;99.90
2130;DHT22;1071;52.544;13.374;2022-11-04T10:12:49;14.00;99.90
2130;DHT22;1071;52.544;13.374;2022-11-04T10:15:43;14.00;99.90
2130;DHT22;1071;52.544;13.374;2022-11-04T10:18:22;14.00;99.90
2130;DHT22;1071;52.544;13.374;2022-11-04T10:20:57;14.10;99.90
2130;DHT22;1071;52.544;13.374;2022-11-04T10:23:31;14.00;99.90
2130;DHT22;1071;52.544;13.374;2022-11-04T10:26:04;14.00;99.90
2130;DHT22;1071;52.544;13.374;2022-11-04T10:28:40;14.00;99.90
2130;DHT22;1071;52.544;13.374;2022-11-04T10:31:13;14.00;99.90
2130;DHT22;1071;52.544;13.374;2022-11-04T10:33:44;14.00;99.90
2130;DHT22;1071;52.544;13.374;2022-11-04T10:36:14;14.00;99.90
2130;DHT22;1071;52.544;13.374;2022-11-04T10:38:43;14.10;99.90
2130;DHT22;1071;52.544;13.374;2022-11-04T10:41:19;14.10;99.90
2130;DHT22;1071;52.544;13.374;2022-11-04T10:43:49;14.10;99.90
2130;DHT22;1071;52.544;13.374;2022-11-04T10:46:36;14.10;99.90
2130;DHT22;1071;52.544;13.374;2022-11-04T10:49:23;14.00;99.90
2130;DHT22;1071;52.544;13.374;2022-11-04T10:51:56;14.00;99.90
2130;DHT22;1071;52.544;13.374;2022-11-04T10:54:25;14.00;99.90
2130;DHT22;1071;52.544;13.374;2022-11-04T10:56:55;14.00;99.90
2130;DHT22;1071;52.544;13.374;2022-11-04T10:59:26;14.00;99.90
2130;DHT22;1071;52.544;13.374;2022-11-04T11:01:54;14.00;99.90
2130;DHT22;1071;52.544;13.374;2022-11-04T11:04:25;14.00;99.90
2130;DHT22;1071;52.544;13.374;2022-11-04T11:06:53;14.00;99.90
2130;DHT22;1071;52.544;13.374;2022-11-04T11:09:26;14.00;99.90
2130;DHT22;1071;52.544;13.374;2022-11-04T11:11:56;14.00;99.90
2130;DHT22;1071;52.544;13.374;2022-11-04T11:14:33;14.00;99.90
2130;DHT22;1071;52.544;13.374;2022-11-04T11:17:36;14.00;99.90
2130;DHT22;1071;52.544;13.374;2022-11-04T11:20:18;14.00;99.90
2130;DHT22;1071;52.544;13.374;2022-11-04T11:22:47;14.00;99.90
2130;DHT22;1071;52.544;13.374;2022-11-04T11:25:25;14.00;99.90
2130;DHT22;1071;52.544;13.374;2022-11-04T11:27:54;14.00;99.90
2130;DHT22;1071;52.544;13.374;2022-11-04T11:30:28;14.00;99.90
2130;DHT22;1071;52.544;13.374;2022-11-04T11:33:01;14.00;99.90
2130;DHT22;1071;52.544;13.374;2022-11-04T11:35:33;14.00;99.90
2130;DHT22;1071;52.544;13.374;2022-11-04T11:38:14;14.00;99.90
2130;DHT22;1071;52.544;13.374;2022-11-04T11:40:45;14.00;99.90
2130;DHT22;1071;52.544;13.374;2022-11-04T11:43:21;14.00;99.90
2130;DHT22;1071;52.544;13.374;2022-11-04T11:45:50;14.00;99.90
2130;DHT22;1071;52.544;13.374;2022-11-04T11:48:31;14.00;99.90
2130;DHT22;1071;52.544;13.374;2022-11-04T11:50:58;14.00;99.90
2130;DHT22;1071;52.544;13.374;2022-11-04T11:53:26;14.00;99.90
2130;DHT22;1071;52.544;13.374;2022-11-04T11:56:06;13.90;99.90
2130;DHT22;1071;52.544;13.374;2022-11-04T11:58:43;13.90;99.90
2130;DHT22;1071;52.544;13.374;2022-11-04T12:01:16;13.90;99.90
2130;DHT22;1071;52.544;13.374;2022-11-04T12:03:47;13.90;99.90
2130;DHT22;1071;52.544;13.374;2022-11-04T12:06:26;13.90;99.90
2130;DHT22;1071;52.544;13.374;2022-11-04T12:09:07;13.90;99.90
2130;DHT22;1071;52.544;13.374;2022-11-04T12:11:48;13.90;99.90
2130;DHT22;1071;52.544;13.374;2022-11-04T12:14:27;13.90;99.90
2130;DHT22;1071;52.544;13.374;2022-11-04T12:17:06;13.90;99.90
2130;DHT22;1071;52.544;13.374;2022-11-04T12:20:02;13.90;99.90
2130;DHT22;1071;52.544;13.374;2022-11-04T12:22:39;13.90;99.90
2130;DHT22;1071;52.544;13.374;2022-11-04T12:25:19;13.90;99.90
2130;DHT22;1071;52.544;13.374;2022-11-04T12:27:54;13.90;99.90
2130;DHT22;1071;52.544;13.374;2022-11-04T12:30:30;13.90;99.90
2130;DHT22;1071;52.544;13.374;2022-11-04T12:33:16;13.90;99.90
2130;DHT22;1071;52.544;13.374;2022-11-04T12:35:56;13.90;99.90
2130;DHT22;1071;52.544;13.374;2022-11-04T12:38:41;13.90;99.90
2130;DHT22;1071;52.544;13.374;2022-11-04T12:41:19;13.90;99.90
2130;DHT22;1071;52.544;13.374;2022-11-04T12:43:56;13.90;99.90
2130;DHT22;1071;52.544;13.374;2022-11-04T12:46:31;13.90;99.90
2130;DHT22;1071;52.544;13.374;2022-11-04T12:49:24;13.80;99.90
2130;DHT22;1071;52.544;13.374;2022-11-04T12:52:01;13.80;99.90
2130;DHT22;1071;52.544;13.374;2022-11-04T12:54:50;13.80;99.90
2130;DHT22;1071;52.544;13.374;2022-11-04T12:57:26;13.80;99.90
2130;DHT22;1071;52.544;13.374;2022-11-04T13:00:07;13.80;99.90
2130;DHT22;1071;52.544;13.374;2022-11-04T13:02:39;13.80;99.90
2130;DHT22;1071;52.544;13.374;2022-11-04T13:05:20;13.80;99.90
2130;DHT22;1071;52.544;13.374;2022-11-04T13:07:55;13.80;99.90
2130;DHT22;1071;52.544;13.374;2022-11-04T13:10:33;13.80;99.90
2130;DHT22;1071;52.544;13.374;2022-11-04T13:13:04;13.80;99.90
2130;DHT22;1071;52.544;13.374;2022-11-04T13:15:41;13.80;99.90
2130;DHT22;1071;52.544;13.374;2022-11-04T13:18:15;13.80;99.90
2130;DHT22;1071;52.544;13.374;2022-11-04T13:20:49;13.80;99.90
2130;DHT22;1071;52.544;13.374;2022-11-04T13:23:22;13.80;99.90
2130;DHT22;1071;52.544;13.374;2022-11-04T13:25:51;13.80;99.90
2130;DHT22;1071;52.544;13.374;2022-11-04T13:28:20;13.80;99.90
2130;DHT22;1071;52.544;13.374;2022-11-04T13:30:58;13.80;99.90
2130;DHT22;1071;52.544;13.374;2022-11-04T13:33:34;13.70;99.90
2130;DHT22;1071;52.544;13.374;2022-11-04T13:36:14;13.70;99.90
2130;DHT22;1071;52.544;13.374;2022-11-04T13:38:50;13.70;99.90
2130;DHT22;1071;52.544;13.374;2022-11-04T13:41:31;13.70;99.90
2130;DHT22;1071;52.544;13.374;2022-11-04T13:44:05;13.70;99.90
2130;DHT22;1071;52.544;13.374;2022-11-04T13:46:47;13.70;99.90
2130;DHT22;1071;52.544;13.374;2022-11-04T13:49:20;13.70;99.90
2130;DHT22;1071;52.544;13.374;2022-11-04T13:52:04;13.70;99.90
2130;DHT22;1071;52.544;13.374;2022-11-04T13:54:36;13.70;99.90
2130;DHT22;1071;52.544;13.374;2022-11-04T13:57:09;13.70;99.90
2130;DHT22;1071;52.544;13.374;2022-11-04T13:59:37;13.70;99.90
2130;DHT22;1071;52.544;13.374;2022-11-04T14:02:31;13.70;99.90
2130;DHT22;1071;52.544;13.374;2022-11-04T14:08:18;13.70;99.90
2130;DHT22;1071;52.544;13.374;2022-11-04T14:11:02;13.70;99.90
2130;DHT22;1071;52.544;13.374;2022-11-04T14:13:44;13.70;99.90
2130;DHT22;1071;52.544;13.374;2022-11-04T14:16:37;13.70;99.90
2130;DHT22;1071;52.544;13.374;2022-11-04T14:22:28;13.70;99.90
2130;DHT22;1071;52.544;13.374;2022-11-04T14:24:58;13.70;99.90
2130;DHT22;1071;52.544;13.374;2022-11-04T14:27:31;13.70;99.90
2130;DHT22;1071;52.544;13.374;2022-11-04T14:30:27;13.70;99.90
2130;DHT22;1071;52.544;13.374;2022-11-04T14:33:00;13.70;99.90
2130;DHT22;1071;52.544;13.374;2022-11-04T14:35:28;13.70;99.90
2130;DHT22;1071;52.544;13.374;2022-11-04T14:38:03;13.70;99.90
2130;DHT22;1071;52.544;13.374;2022-11-04T14:40:45;13.70;99.90
2130;DHT22;1071;52.544;13.374;2022-11-04T14:43:25;13.70;99.90
2130;DHT22;1071;52.544;13.374;2022-11-04T14:46:22;13.80;99.90
2130;DHT22;1071;52.544;13.374;2022-11-04T14:49:29;13.80;99.90
2130;DHT22;1071;52.544;13.374;2022-11-04T14:51:57;13.80;99.90
2130;DHT22;1071;52.544;13.374;2022-11-04T14:54:26;13.80;99.90
2130;DHT22;1071;52.544;13.374;2022-11-04T14:57:08;13.80;99.90
2130;DHT22;1071;52.544;13.374;2022-11-04T14:59:38;13.70;99.90
2130;DHT22;1071;52.544;13.374;2022-11-04T15:02:15;13.70;99.90
2130;DHT22;1071;52.544;13.374;2022-11-04T15:04:58;13.70;99.90
2130;DHT22;1071;52.544;13.374;2022-11-04T15:07:32;13.70;99.90
2130;DHT22;1071;52.544;13.374;2022-11-04T15:10:00;13.70;99.90
2130;DHT22;1071;52.544;13.374;2022-11-04T15:12:27;13.70;99.90
2130;DHT22;1071;52.544;13.374;2022-11-04T15:15:28;13.70;99.90
2130;DHT22;1071;52.544;13.374;2022-11-04T15:19:26;13.70;99.90
2130;DHT22;1071;52.544;13.374;2022-11-04T15:22:24;13.60;99.90
2130;DHT22;1071;52.544;13.374;2022-11-04T15:25:12;13.60;99.90
2130;DHT22;1071;52.544;13.374;2022-11-04T15:27:42;13.60;99.90
2130;DHT22;1071;52.544;13.374;2022-11-04T15:30:18;13.60;99.90
2130;DHT22;1071;52.544;13.374;2022-11-04T15:32:56;13.60;99.90
2130;DHT22;1071;52.544;13.374;2022-11-04T15:42:13;13.60;99.90
2130;DHT22;1071;52.544;13.374;2022-11-04T15:45:37;13.50;99.90
2130;DHT22;1071;52.544;13.374;2022-11-04T15:48:27;13.50;99.90
2130;DHT22;1071;52.544;13.374;2022-11-04T15:51:12;13.50;99.90
2130;DHT22;1071;52.544;13.374;2022-11-04T15:53:51;13.50;99.90
2130;DHT22;1071;52.544;13.374;2022-11-04T15:56:22;13.50;99.90
2130;DHT22;1071;52.544;13.374;2022-11-04T15:58:52;13.50;99.90
2130;DHT22;1071;52.544;13.374;2022-11-04T16:01:20;13.50;99.90
2130;DHT22;1071;52.544;13.374;2022-11-04T16:03:52;13.50;99.90
2130;DHT22;1071;52.544;13.374;2022-11-04T16:06:32;13.50;99.90
2130;DHT22;1071;52.544;13.374;2022-11-04T16:09:14;13.50;99.90
2130;DHT22;1071;52.544;13.374;2022-11-04T16:12:02;13.50;99.90
2130;DHT22;1071;52.544;13.374;2022-11-04T16:14:31;13.40;99.90
2130;DHT22;1071;52.544;13.374;2022-11-04T16:16:58;13.40;99.90
2130;DHT22;1071;52.544;13.374;2022-11-04T16:19:27;13.50;99.90
2130;DHT22;1071;52.544;13.374;2022-11-04T16:22:23;13.50;99.90
2130;DHT22;1071;52.544;13.374;2022-11-04T16:25:00;13.40;99.90
2130;DHT22;1071;52.544;13.374;2022-11-04T16:27:31;13.40;99.90
2130;DHT22;1071;52.544;13.374;2022-11-04T16:30:08;13.40;99.90
2130;DHT22;1071;52.544;13.374;2022-11-04T16:32:40;13.40;99.90
2130;DHT22;1071;52.544;13.374;2022-11-04T16:35:14;13.40;99.90
2130;DHT22;1071;52.544;13.374;2022-11-04T16:37:42;13.40;99.90
2130;DHT22;1071;52.544;13.374;2022-11-04T16:40:09;13.40;99.90
2130;DHT22;1071;52.544;13.374;2022-11-04T16:42:36;13.40;99.90
2130;DHT22;1071;52.544;13.374;2022-11-04T16:45:06;13.40;99.90
2130;DHT22;1071;52.544;13.374;2022-11-04T16:47:38;13.40;99.90
2130;DHT22;1071;52.544;13.374;2022-11-04T16:50:13;13.40;99.90